CheckWX is a tool to help pilots better visualize weather data.  It is not intended as a substitute for an official pre-flight weather briefing.

21:35:57 UTC

KMIB METAR
Minot AFB Airport
Minot, North Dakota, USA
Current

40 mins ago

KMIB 252056Z AUTO 00000KT 10SM FEW090 SCT190 18/09 A2998 RMK AO2 SLP160 T01790085 58004 $
Observed
May-25 @ 20:56 UTC
Visibility
Flight Rules
VFR
Cloud Levels
  • Few at 9,000' AGL
  • Scattered at 19,000' AGL
Temperature
18°C / 64°F
Dewpoint
C / 46°F
Humidity
52%
Altimeter
29.98" Hg
Pressure
1015.22 hPa
Previous

2 hours ago

KMIB 251956Z AUTO 16003KT 10SM FEW037 SCT200 18/09 A2999 RMK AO2 SLP163 T01750086 $
Observed
May-25 @ 19:56 UTC
Wind
  • 160° at 3 KTS
Visibility
Flight Rules
VFR
Cloud Levels
  • Few at 3,700' AGL
  • Scattered at 20,000' AGL
Temperature
18°C / 64°F
Dewpoint
C / 48°F
Humidity
56%
Altimeter
29.99" Hg
Pressure
1015.62 hPa
Previous

3 hours ago

KMIB 251856Z AUTO 00000KT 10SM FEW048 SCT150 SCT190 17/09 A2999 RMK AO2 SLP163 T01660088 $
Observed
May-25 @ 18:56 UTC
Visibility
Flight Rules
VFR
Cloud Levels
  • Few at 4,800' AGL
  • Scattered at 15,000' AGL
  • Scattered at 19,000' AGL
Temperature
17°C / 63°F
Dewpoint
C / 48°F
Humidity
59%
Altimeter
29.99" Hg
Pressure
1015.62 hPa